createdAt,value
2022-10-05T00:01:42.925Z,101577.84
2022-10-05T00:04:17.172Z,101581.06
2022-10-05T00:06:45.670Z,101567.97
2022-10-05T00:09:20.641Z,101571.66
2022-10-05T00:11:47.874Z,101564.78
2022-10-05T00:14:25.683Z,101562.69
2022-10-05T00:16:52.208Z,101574.75
2022-10-05T00:19:27.185Z,101562.03
2022-10-05T00:21:58.719Z,101554.78
2022-10-05T00:24:25.181Z,101549.59
2022-10-05T00:26:56.911Z,101551.19
2022-10-05T00:29:24.645Z,101543.78
2022-10-05T00:31:51.371Z,101539.34
2022-10-05T00:34:17.936Z,101543.69
2022-10-05T00:36:45.303Z,101541.69
2022-10-05T00:39:11.918Z,101543.63
2022-10-05T00:41:55.616Z,101534.84
2022-10-05T00:44:25.053Z,101539.38
2022-10-05T00:46:55.818Z,101532.22
2022-10-05T00:49:31.280Z,101535.25
2022-10-05T00:52:06.886Z,101523.78
2022-10-05T00:54:38.931Z,101524.44
2022-10-05T00:57:28.421Z,101509.00
2022-10-05T01:00:15.645Z,101515.69
2022-10-05T01:03:03.801Z,101518.09
2022-10-05T01:05:39.941Z,101523.75
2022-10-05T01:08:24.910Z,101526.94
2022-10-05T01:10:57.647Z,101521.75
2022-10-05T01:14:16.510Z,101527.97
2022-10-05T01:16:52.210Z,101520.41
2022-10-05T01:19:54.806Z,101523.56
2022-10-05T01:23:16.786Z,101523.69
2022-10-05T01:25:55.146Z,101517.19
2022-10-05T01:28:29.822Z,101511.56
2022-10-05T01:31:10.518Z,101508.78
2022-10-05T01:33:49.142Z,101501.69
2022-10-05T01:36:31.809Z,101504.16
2022-10-05T01:39:07.475Z,101481.47
2022-10-05T01:41:43.016Z,101498.63
2022-10-05T01:44:26.753Z,101499.81
2022-10-05T01:47:27.355Z,101500.28
2022-10-05T01:50:08.258Z,101486.56
2022-10-05T01:52:46.243Z,101490.22
2022-10-05T01:55:20.067Z,101478.63
2022-10-05T01:58:18.022Z,101483.50
2022-10-05T02:01:09.395Z,101482.06
2022-10-05T02:03:38.824Z,101476.41
2022-10-05T02:06:20.816Z,101468.41
2022-10-05T02:08:50.940Z,101470.13
2022-10-05T02:11:18.486Z,101467.22
2022-10-05T02:13:50.771Z,101462.25
2022-10-05T02:16:22.980Z,101463.44
2022-10-05T02:18:58.586Z,101463.78
2022-10-05T02:21:26.805Z,101463.78
2022-10-05T02:23:57.126Z,101451.94
2022-10-05T02:26:25.534Z,101447.97
2022-10-05T02:29:03.031Z,101446.50
2022-10-05T02:31:36.365Z,101441.75
2022-10-05T02:34:22.728Z,101443.06
2022-10-05T02:36:59.159Z,101438.06
2022-10-05T02:40:04.835Z,101440.25
2022-10-05T02:42:57.065Z,101439.63
2022-10-05T02:45:46.134Z,101433.56
2022-10-05T02:48:28.474Z,101444.13
2022-10-05T02:51:28.632Z,101434.69
2022-10-05T02:54:14.216Z,101430.09
2022-10-05T02:57:21.129Z,101427.56
2022-10-05T02:59:53.189Z,101423.06
2022-10-05T03:02:24.758Z,101425.66
2022-10-05T03:05:00.179Z,101414.16
2022-10-05T03:07:34.308Z,101409.13
2022-10-05T03:10:06.627Z,101409.88
2022-10-05T03:12:51.393Z,101415.81
2022-10-05T03:15:55.364Z,101405.91
2022-10-05T03:18:34.125Z,101397.53
2022-10-05T03:21:08.515Z,101384.84
2022-10-05T03:23:45.400Z,101397.41
2022-10-05T03:26:59.767Z,101392.78
2022-10-05T03:29:41.101Z,101386.88
2022-10-05T03:32:32.324Z,101385.28
2022-10-05T03:35:12.179Z,101397.09
2022-10-05T03:37:59.206Z,101404.63
2022-10-05T03:40:43.848Z,101402.47
2022-10-05T03:43:22.491Z,101403.75
2022-10-05T03:46:00.499Z,101401.59
2022-10-05T03:48:38.125Z,101406.97
2022-10-05T03:51:16.185Z,101389.47
2022-10-05T03:53:47.394Z,101387.88
2022-10-05T03:56:33.549Z,101387.19
2022-10-05T03:59:04.063Z,101382.59
2022-10-05T04:01:43.540Z,101375.03
2022-10-05T04:04:16.141Z,101380.31
2022-10-05T04:06:47.806Z,101387.88
2022-10-05T04:09:24.311Z,101390.31
2022-10-05T04:11:52.025Z,101386.44
2022-10-05T04:14:44.517Z,101389.56
2022-10-05T04:17:17.872Z,101386.78
2022-10-05T04:19:49.635Z,101377.31
2022-10-05T04:22:21.222Z,101368.06
2022-10-05T04:24:53.303Z,101370.97
2022-10-05T04:27:22.616Z,101372.81
2022-10-05T04:29:54.145Z,101377.13
2022-10-05T04:32:35.891Z,101369.34
2022-10-05T04:35:13.622Z,101367.94
2022-10-05T04:38:18.685Z,101372.38
2022-10-05T04:41:25.271Z,101368.88
2022-10-05T04:44:06.410Z,101371.63
2022-10-05T04:47:01.315Z,101378.97
2022-10-05T04:50:13.043Z,101370.00
2022-10-05T04:53:28.459Z,101358.50
2022-10-05T04:56:20.940Z,101363.13
2022-10-05T04:58:53.401Z,101359.31
2022-10-05T05:01:46.437Z,101361.44
2022-10-05T05:04:34.166Z,101356.75
2022-10-05T05:07:23.373Z,101359.72
2022-10-05T05:09:57.444Z,101369.63
2022-10-05T05:12:23.813Z,101365.19
2022-10-05T05:14:56.294Z,101360.38
2022-10-05T05:17:52.772Z,101366.72
2022-10-05T05:20:24.658Z,101362.38
2022-10-05T05:23:08.275Z,101368.72
2022-10-05T05:25:48.377Z,101355.31
2022-10-05T05:28:23.375Z,101347.16
2022-10-05T05:31:02.301Z,101344.06
2022-10-05T05:33:33.651Z,101346.84
2022-10-05T05:36:11.180Z,101346.56
2022-10-05T05:39:04.903Z,101351.50
2022-10-05T05:41:39.260Z,101348.50
2022-10-05T05:44:26.774Z,101344.81
2022-10-05T05:47:08.093Z,101348.31
2022-10-05T05:50:10.971Z,101342.81
2022-10-05T05:52:52.712Z,101338.19
2022-10-05T05:55:42.684Z,101332.50
2022-10-05T05:58:19.409Z,101337.09
2022-10-05T06:01:04.268Z,101339.28
2022-10-05T06:03:43.661Z,101335.91
2022-10-05T06:06:12.157Z,101340.03
2022-10-05T06:08:43.440Z,101326.06
2022-10-05T06:11:22.918Z,101335.28
2022-10-05T06:13:49.679Z,101326.78
2022-10-05T06:16:37.204Z,101327.97
2022-10-05T06:19:16.205Z,101327.97
2022-10-05T06:21:53.673Z,101322.78
2022-10-05T06:24:37.500Z,101324.72
2022-10-05T06:27:22.284Z,101327.69
2022-10-05T06:29:51.541Z,101348.25
2022-10-05T06:32:30.879Z,101346.41
2022-10-05T06:35:07.671Z,101341.50
2022-10-05T06:38:12.275Z,101340.63
2022-10-05T06:41:00.078Z,101344.59
2022-10-05T06:43:39.533Z,101338.69
2022-10-05T06:46:14.593Z,101334.59
2022-10-05T06:48:51.420Z,101330.50
2022-10-05T06:51:32.226Z,101323.22
2022-10-05T06:54:07.498Z,101327.41
2022-10-05T06:56:45.706Z,101333.66
2022-10-05T06:59:43.332Z,101342.44
2022-10-05T07:02:25.901Z,101330.41
2022-10-05T07:05:30.048Z,101344.28
2022-10-05T07:08:02.999Z,101346.38
2022-10-05T07:10:51.674Z,101358.00
2022-10-05T07:13:45.959Z,101367.09
2022-10-05T07:16:22.660Z,101364.72
2022-10-05T07:19:25.670Z,101359.34
2022-10-05T07:22:23.569Z,101355.78
2022-10-05T07:24:58.121Z,101356.66
2022-10-05T07:27:28.619Z,101352.41
2022-10-05T07:30:04.647Z,101356.34
2022-10-05T07:32:45.851Z,101357.13
2022-10-05T07:36:03.286Z,101369.72
2022-10-05T07:38:33.006Z,101366.41
2022-10-05T07:41:06.281Z,101365.34
2022-10-05T07:44:01.580Z,101367.81
2022-10-05T07:46:41.470Z,101372.38
2022-10-05T07:49:32.199Z,101366.88
2022-10-05T07:52:01.971Z,101365.69
2022-10-05T07:54:45.302Z,101367.19
2022-10-05T07:57:30.282Z,101368.25
2022-10-05T08:00:06.867Z,101363.53
2022-10-05T08:02:44.431Z,101372.22
2022-10-05T08:05:31.986Z,101371.63
2022-10-05T08:08:06.866Z,101379.06
2022-10-05T08:10:44.718Z,101376.53
2022-10-05T08:13:21.277Z,101376.34
2022-10-05T08:15:51.890Z,101366.63
2022-10-05T08:18:49.323Z,101365.66
2022-10-05T08:21:23.363Z,101369.25
2022-10-05T08:24:00.242Z,101368.50
2022-10-05T08:27:01.758Z,101363.59
2022-10-05T08:29:39.674Z,101373.38
2022-10-05T08:32:12.588Z,101366.31
2022-10-05T08:34:48.263Z,101368.13
2022-10-05T08:37:27.599Z,101365.09
2022-10-05T08:40:19.168Z,101365.38
2022-10-05T08:43:30.594Z,101363.84
2022-10-05T08:46:15.084Z,101360.47
2022-10-05T08:49:05.711Z,101365.19
2022-10-05T08:51:52.032Z,101357.31
2022-10-05T08:54:36.611Z,101358.56
2022-10-05T08:57:32.774Z,101364.91
2022-10-05T09:00:09.175Z,101358.75
2022-10-05T09:02:39.996Z,101363.28
2022-10-05T09:05:27.972Z,101358.41
2022-10-05T09:08:00.342Z,101356.63
2022-10-05T09:10:51.632Z,101364.47
2022-10-05T09:13:47.278Z,101363.38
2022-10-05T09:16:23.864Z,101358.53
2022-10-05T09:19:22.955Z,101350.44
2022-10-05T09:22:12.082Z,101361.84
2022-10-05T09:24:54.693Z,101343.53
2022-10-05T09:27:34.229Z,101355.53
2022-10-05T09:30:28.573Z,101346.94
2022-10-05T09:33:16.388Z,101341.56
2022-10-05T09:36:07.573Z,101355.66
2022-10-05T09:38:57.347Z,101354.91
2022-10-05T09:41:41.735Z,101341.22
2022-10-05T09:44:36.433Z,101341.13
2022-10-05T09:47:18.127Z,101334.81
2022-10-05T09:49:54.033Z,101340.78
2022-10-05T09:53:02.090Z,101341.84
2022-10-05T09:55:53.738Z,101319.31
2022-10-05T09:58:28.347Z,101323.09
2022-10-05T10:01:09.238Z,101318.72
2022-10-05T10:04:16.223Z,101312.59
2022-10-05T10:07:22.765Z,101314.44
2022-10-05T10:10:32.094Z,101322.66
2022-10-05T10:13:36.558Z,101306.81
2022-10-05T10:16:09.488Z,101308.28
2022-10-05T10:18:52.702Z,101310.84
2022-10-05T10:21:34.587Z,101302.50
2022-10-05T10:24:15.827Z,101310.16
2022-10-05T10:27:07.569Z,101306.78
2022-10-05T10:29:42.894Z,101305.66
2022-10-05T10:32:24.518Z,101292.59
2022-10-05T10:35:08.671Z,101289.66
2022-10-05T10:38:02.625Z,101280.25
2022-10-05T10:41:06.759Z,101281.41
2022-10-05T10:43:58.413Z,101280.91
2022-10-05T10:46:53.967Z,101284.72
2022-10-05T10:49:32.790Z,101282.19
2022-10-05T10:52:43.878Z,101276.56
2022-10-05T10:55:38.433Z,101272.44
2022-10-05T10:58:53.170Z,101282.88
2022-10-05T11:01:26.560Z,101271.19
2022-10-05T11:04:04.440Z,101271.69
2022-10-05T11:07:06.656Z,101266.03
2022-10-05T11:10:20.031Z,101269.50
2022-10-05T11:13:12.404Z,101261.25
2022-10-05T11:15:56.207Z,101256.59
2022-10-05T11:18:30.718Z,101256.59
2022-10-05T11:21:21.739Z,101256.88
2022-10-05T11:23:56.852Z,101254.19
2022-10-05T11:27:03.286Z,101246.91
2022-10-05T11:29:35.735Z,101245.53
2022-10-05T11:32:21.074Z,101231.78
2022-10-05T11:35:03.533Z,101237.75
2022-10-05T11:37:53.615Z,101232.72
2022-10-05T11:40:38.778Z,101229.56
2022-10-05T11:43:29.964Z,101223.97
2022-10-05T11:46:15.143Z,101226.69
2022-10-05T11:48:50.685Z,101220.50
2022-10-05T11:51:34.170Z,101205.38
2022-10-05T11:54:09.697Z,101211.78
2022-10-05T11:56:40.387Z,101210.81
2022-10-05T11:59:21.293Z,101206.94
2022-10-05T12:01:52.959Z,101198.72
2022-10-05T12:04:45.333Z,101197.75
2022-10-05T12:07:24.607Z,101189.03
2022-10-05T12:10:16.854Z,101198.72
2022-10-05T12:13:02.569Z,101176.28
2022-10-05T12:15:37.408Z,101179.69
2022-10-05T12:18:13.590Z,101172.03
2022-10-05T12:20:54.867Z,101174.03
2022-10-05T12:23:47.793Z,101166.31
2022-10-05T12:26:18.532Z,101171.47
2022-10-05T12:28:47.937Z,101168.41
2022-10-05T12:31:20.353Z,101172.22
2022-10-05T12:34:01.791Z,101163.22
2022-10-05T12:37:03.193Z,101160.56
2022-10-05T12:39:47.280Z,101143.94
2022-10-05T12:42:30.367Z,101148.88
2022-10-05T12:45:10.266Z,101143.69
2022-10-05T12:47:39.935Z,101145.16
2022-10-05T12:50:18.440Z,101141.75
2022-10-05T12:52:50.816Z,101132.25
2022-10-05T12:55:26.206Z,101132.22
2022-10-05T12:58:07.765Z,101125.09
2022-10-05T13:00:41.789Z,101114.66
2022-10-05T13:03:28.597Z,101115.88
2022-10-05T13:06:07.657Z,101124.28
2022-10-05T13:08:50.433Z,101122.84
2022-10-05T13:11:42.816Z,101122.81
2022-10-05T13:14:31.376Z,101122.28
2022-10-05T13:17:12.646Z,101125.75
2022-10-05T13:19:57.388Z,101116.91
2022-10-05T13:22:30.895Z,101115.88
2022-10-05T13:25:33.438Z,101127.69
2022-10-05T13:28:30.294Z,101118.34
2022-10-05T13:31:14.227Z,101120.78
2022-10-05T13:34:30.505Z,101112.69
2022-10-05T13:37:08.503Z,101121.22
2022-10-05T13:40:09.093Z,101127.34
2022-10-05T13:43:15.592Z,101124.38
2022-10-05T13:46:14.144Z,101121.72
2022-10-05T13:48:58.306Z,101127.69
2022-10-05T13:51:32.572Z,101129.31
2022-10-05T13:54:41.124Z,101135.34
2022-10-05T13:57:51.589Z,101140.31
2022-10-05T14:00:27.034Z,101136.81
2022-10-05T14:03:04.287Z,101138.41
2022-10-05T14:05:38.181Z,101133.16
2022-10-05T14:08:08.711Z,101140.91
2022-10-05T14:10:46.795Z,101136.22
2022-10-05T14:13:24.378Z,101136.91
2022-10-05T14:16:19.779Z,101132.88
2022-10-05T14:19:42.137Z,101138.25
2022-10-05T14:22:25.051Z,101142.56
2022-10-05T14:24:57.241Z,101143.81
2022-10-05T14:27:33.333Z,101132.44
2022-10-05T14:30:23.632Z,101127.28
2022-10-05T14:33:08.919Z,101126.06
2022-10-05T14:35:58.279Z,101116.97
2022-10-05T14:38:58.139Z,101121.69
2022-10-05T14:41:28.300Z,101114.59
2022-10-05T14:44:17.327Z,101109.97
2022-10-05T14:46:58.269Z,101119.66
2022-10-05T14:49:38.991Z,101100.50
2022-10-05T14:52:38.757Z,101117.88
2022-10-05T14:55:21.457Z,101121.66
2022-10-05T14:58:12.831Z,101118.16
2022-10-05T15:01:13.892Z,101107.84
2022-10-05T15:03:48.493Z,101093.81
2022-10-05T15:06:26.886Z,101090.13
2022-10-05T15:09:17.915Z,101073.06
2022-10-05T15:11:47.442Z,101085.16
2022-10-05T15:14:31.769Z,101083.44
2022-10-05T15:17:03.184Z,101079.72
2022-10-05T15:20:02.394Z,101082.63
2022-10-05T15:22:42.682Z,101083.06
2022-10-05T15:25:22.224Z,101076.44
2022-10-05T15:28:10.031Z,101076.03
2022-10-05T15:30:41.398Z,101074.00
2022-10-05T15:33:19.665Z,101065.09
2022-10-05T15:36:02.128Z,101072.44
2022-10-05T15:38:50.684Z,101065.34
2022-10-05T15:41:22.230Z,101064.34
2022-10-05T15:44:06.624Z,101064.03
2022-10-05T15:46:40.472Z,101064.19
2022-10-05T15:49:49.499Z,101057.22
2022-10-05T15:53:11.039Z,101062.88
2022-10-05T15:55:58.515Z,101070.38
2022-10-05T15:58:48.745Z,101062.72
2022-10-05T16:01:29.230Z,101076.00
2022-10-05T16:04:03.685Z,101069.25
2022-10-05T16:06:54.900Z,101079.84
2022-10-05T16:09:34.228Z,101068.78
2022-10-05T16:12:09.852Z,101064.38
2022-10-05T16:14:45.680Z,101071.47
2022-10-05T16:17:51.245Z,101069.78
2022-10-05T16:20:28.950Z,101083.88
2022-10-05T16:23:27.679Z,101075.00
2022-10-05T16:26:07.142Z,101079.09
2022-10-05T16:28:42.291Z,101083.72
2022-10-05T16:31:18.651Z,101084.16
2022-10-05T16:33:55.224Z,101082.44
2022-10-05T16:36:46.781Z,101090.97
2022-10-05T16:39:20.545Z,101098.88
2022-10-05T16:41:56.446Z,101098.72
2022-10-05T16:44:34.783Z,101106.53
2022-10-05T16:47:22.910Z,101108.69
2022-10-05T16:50:02.403Z,101112.34
2022-10-05T16:52:28.993Z,101114.03
2022-10-05T16:55:03.126Z,101106.75
2022-10-05T16:57:32.156Z,101121.56
2022-10-05T17:00:19.820Z,101117.94
2022-10-05T17:03:04.975Z,101122.81
2022-10-05T17:05:47.843Z,101122.06
2022-10-05T17:08:46.623Z,101124.88
2022-10-05T17:11:40.190Z,101120.56
2022-10-05T17:14:15.039Z,101128.31
2022-10-05T17:17:03.450Z,101120.28
2022-10-05T17:19:35.935Z,101121.81
2022-10-05T17:22:05.343Z,101127.66
2022-10-05T17:25:08.573Z,101119.28
2022-10-05T17:27:50.863Z,101121.50
2022-10-05T17:30:31.648Z,101120.94
2022-10-05T17:33:04.534Z,101118.38
2022-10-05T17:35:51.185Z,101123.97
2022-10-05T17:38:48.365Z,101118.13
2022-10-05T17:41:16.765Z,101130.66
2022-10-05T17:44:13.268Z,101129.06
2022-10-05T17:47:03.788Z,101135.19
2022-10-05T17:50:17.311Z,101139.94
2022-10-05T17:53:03.338Z,101130.81
2022-10-05T17:55:32.878Z,101132.41
2022-10-05T17:58:27.402Z,101124.22
2022-10-05T18:00:57.213Z,101131.13
2022-10-05T18:03:36.299Z,101124.84
2022-10-05T18:06:24.681Z,101138.88
2022-10-05T18:09:13.743Z,101127.09
2022-10-05T18:11:44.903Z,101137.72
2022-10-05T18:14:18.723Z,101139.50
2022-10-05T18:17:05.381Z,101142.97
2022-10-05T18:19:33.160Z,101142.69
2022-10-05T18:22:17.809Z,101137.34
2022-10-05T18:24:52.977Z,101128.97
2022-10-05T18:27:34.288Z,101134.38
2022-10-05T18:30:16.857Z,101132.88
2022-10-05T18:33:05.124Z,101136.63
2022-10-05T18:36:01.018Z,101141.38
2022-10-05T18:38:45.327Z,101138.66
2022-10-05T18:41:21.062Z,101144.91
2022-10-05T18:43:59.378Z,101141.31
2022-10-05T18:46:38.059Z,101142.59
2022-10-05T18:49:38.632Z,101143.91
2022-10-05T18:52:13.333Z,101148.72
2022-10-05T18:54:55.067Z,101148.91
2022-10-05T18:57:53.711Z,101152.66
2022-10-05T19:00:21.911Z,101150.97
2022-10-05T19:02:50.021Z,101149.09
2022-10-05T19:05:46.228Z,101146.28
2022-10-05T19:08:18.761Z,101142.00
2022-10-05T19:11:05.017Z,101147.41
2022-10-05T19:13:51.007Z,101154.31
2022-10-05T19:16:48.761Z,101161.59
2022-10-05T19:19:34.062Z,101168.50
2022-10-05T19:22:31.130Z,101166.50
2022-10-05T19:25:14.946Z,101168.13
2022-10-05T19:27:56.868Z,101179.88
2022-10-05T19:30:25.236Z,101179.59
2022-10-05T19:33:13.309Z,101176.81
2022-10-05T19:35:58.633Z,101191.63
2022-10-05T19:38:57.693Z,101192.19
2022-10-05T19:41:54.626Z,101206.75
2022-10-05T19:44:29.845Z,101202.28
2022-10-05T19:47:05.885Z,101211.78
2022-10-05T19:49:51.533Z,101210.84
2022-10-05T19:52:41.059Z,101208.31
2022-10-05T19:55:13.801Z,101212.41
2022-10-05T19:57:57.583Z,101220.19
2022-10-05T20:00:25.423Z,101220.53
2022-10-05T20:03:14.537Z,101218.09
2022-10-05T20:05:41.105Z,101222.22
2022-10-05T20:08:15.016Z,101226.22
2022-10-05T20:10:41.431Z,101238.47
2022-10-05T20:13:19.595Z,101235.47
2022-10-05T20:16:33.643Z,101246.44
2022-10-05T20:19:18.655Z,101248.31
2022-10-05T20:22:00.435Z,101249.44
2022-10-05T20:24:28.334Z,101238.03
2022-10-05T20:27:02.712Z,101234.47
2022-10-05T20:29:30.440Z,101248.38
2022-10-05T20:31:57.460Z,101256.94
2022-10-05T20:34:24.389Z,101258.06
2022-10-05T20:36:51.507Z,101258.41
2022-10-05T20:39:18.827Z,101250.63
2022-10-05T20:41:45.884Z,101266.66
2022-10-05T20:44:13.210Z,101268.16
2022-10-05T20:46:42.605Z,101262.19
2022-10-05T20:49:10.985Z,101259.38
2022-10-05T20:51:38.551Z,101251.53
2022-10-05T20:54:05.303Z,101245.94
2022-10-05T20:56:32.320Z,101257.22
2022-10-05T20:58:58.892Z,101265.44
2022-10-05T21:01:30.232Z,101248.19
2022-10-05T21:03:56.677Z,101271.13
2022-10-05T21:06:26.251Z,101266.28
2022-10-05T21:08:52.783Z,101261.44
2022-10-05T21:11:19.407Z,101262.56
2022-10-05T21:13:45.982Z,101252.09
2022-10-05T21:16:16.827Z,101246.31
2022-10-05T21:18:45.367Z,101249.31
2022-10-05T21:21:11.794Z,101249.50
2022-10-05T21:23:38.204Z,101253.50
2022-10-05T21:26:04.606Z,101249.41
2022-10-05T21:28:31.765Z,101249.69
2022-10-05T21:30:58.655Z,101263.59
2022-10-05T21:33:25.769Z,101264.97
2022-10-05T21:35:52.647Z,101258.44
2022-10-05T21:38:19.043Z,101262.75
2022-10-05T21:40:45.676Z,101267.41
2022-10-05T21:43:13.361Z,101274.66
2022-10-05T21:45:40.163Z,101257.16
2022-10-05T21:48:07.594Z,101266.28
2022-10-05T21:50:34.176Z,101275.16
2022-10-05T21:53:02.563Z,101270.75
2022-10-05T21:55:29.019Z,101282.06
2022-10-05T21:57:57.079Z,101282.56
2022-10-05T22:00:23.486Z,101288.69
2022-10-05T22:02:49.900Z,101291.94
2022-10-05T22:05:16.510Z,101298.22
2022-10-05T22:07:43.000Z,101295.78
2022-10-05T22:10:09.733Z,101316.03
2022-10-05T22:12:36.147Z,101322.09
2022-10-05T22:15:03.010Z,101315.75
2022-10-05T22:17:31.726Z,101333.47
2022-10-05T22:19:59.099Z,101355.47
2022-10-05T22:22:26.660Z,101395.94
2022-10-05T22:24:54.470Z,101395.88
2022-10-05T22:27:25.835Z,101428.09
2022-10-05T22:29:52.523Z,101435.44
2022-10-05T22:32:18.919Z,101424.94
2022-10-05T22:34:45.718Z,101428.84
2022-10-05T22:37:15.775Z,101411.50
2022-10-05T22:39:43.021Z,101419.91
2022-10-05T22:42:09.845Z,101417.59
2022-10-05T22:44:36.449Z,101418.66
2022-10-05T22:47:03.497Z,101432.00
2022-10-05T22:49:29.904Z,101431.53
2022-10-05T22:51:56.497Z,101444.09
2022-10-05T22:54:26.288Z,101441.69
2022-10-05T22:56:55.246Z,101444.16
2022-10-05T22:59:21.622Z,101446.97
2022-10-05T23:01:48.095Z,101450.22
2022-10-05T23:04:14.525Z,101459.13
2022-10-05T23:06:40.962Z,101472.88
2022-10-05T23:09:07.367Z,101474.06
2022-10-05T23:11:33.818Z,101485.16
2022-10-05T23:14:00.448Z,101485.72
2022-10-05T23:16:28.246Z,101483.03
2022-10-05T23:18:55.099Z,101499.94
2022-10-05T23:21:23.829Z,101492.03
2022-10-05T23:23:51.272Z,101501.31
2022-10-05T23:26:25.033Z,101508.84
2022-10-05T23:28:51.703Z,101518.94
2022-10-05T23:31:21.820Z,101528.53
2022-10-05T23:33:48.631Z,101527.28
2022-10-05T23:36:17.583Z,101533.06
2022-10-05T23:38:44.328Z,101524.53
2022-10-05T23:41:11.010Z,101543.34
2022-10-05T23:43:37.439Z,101556.28
2022-10-05T23:46:06.133Z,101565.34
2022-10-05T23:48:33.194Z,101565.97
2022-10-05T23:50:59.967Z,101571.75
2022-10-05T23:53:26.546Z,101579.13
2022-10-05T23:55:53.566Z,101583.78
2022-10-05T23:58:20.965Z,101598.41
